createdAt,value
2018-12-13T00:02:30.000Z,46.00
2018-12-13T00:05:00.800Z,50.80
2018-12-13T00:07:31.044Z,54.33
2018-12-13T00:10:01.941Z,50.60
2018-12-13T00:12:36.846Z,48.83
2018-12-13T00:15:10.149Z,53.07
2018-12-13T00:17:39.984Z,53.30
2018-12-13T00:20:11.826Z,53.00
2018-12-13T00:22:43.404Z,49.47
2018-12-13T00:25:19.829Z,49.70
2018-12-13T00:27:52.841Z,55.23
2018-12-13T00:30:23.227Z,51.83
2018-12-13T00:32:54.310Z,48.10
2018-12-13T00:35:29.076Z,53.87
2018-12-13T00:38:04.197Z,51.30
2018-12-13T00:40:34.857Z,51.40
2018-12-13T00:43:05.463Z,49.63
2018-12-13T00:45:36.112Z,51.03
2018-12-13T00:48:11.011Z,56.53
2018-12-13T00:50:43.346Z,51.63
2018-12-13T00:53:13.981Z,63.67
2018-12-13T00:55:43.892Z,52.33
2018-12-13T00:58:17.247Z,53.37
2018-12-13T01:00:47.090Z,54.50
2018-12-13T01:03:22.230Z,54.90
2018-12-13T01:05:56.099Z,54.93
2018-12-13T01:08:32.319Z,55.30
2018-12-13T01:11:03.417Z,54.73
2018-12-13T01:13:35.309Z,55.87
2018-12-13T01:16:09.284Z,63.10
2018-12-13T01:18:39.536Z,60.77
2018-12-13T01:21:09.474Z,53.03
2018-12-13T01:23:39.380Z,53.53
2018-12-13T01:26:10.454Z,59.00
2018-12-13T01:28:41.213Z,53.03
2018-12-13T01:31:14.043Z,57.73
2018-12-13T01:33:43.711Z,53.87
2018-12-13T01:36:19.307Z,54.13
2018-12-13T01:38:50.732Z,52.20
2018-12-13T01:41:22.047Z,56.07
2018-12-13T01:43:51.909Z,58.03
2018-12-13T01:46:23.377Z,61.93
2018-12-13T01:48:52.980Z,51.60
2018-12-13T01:51:23.480Z,55.40
2018-12-13T01:53:54.051Z,55.23
2018-12-13T01:56:24.673Z,54.30
2018-12-13T01:58:55.628Z,56.40
2018-12-13T02:01:26.449Z,57.10
2018-12-13T02:03:56.474Z,60.17
2018-12-13T02:06:26.466Z,61.23
2018-12-13T02:08:56.751Z,58.23
2018-12-13T02:11:28.578Z,61.30
2018-12-13T02:13:58.559Z,58.70
2018-12-13T02:16:29.455Z,63.53
2018-12-13T02:19:00.075Z,60.83
2018-12-13T02:21:30.481Z,61.20
2018-12-13T02:24:01.801Z,61.67
2018-12-13T02:26:31.968Z,61.90
2018-12-13T02:29:03.239Z,67.60
2018-12-13T02:31:33.444Z,68.03
2018-12-13T02:34:03.994Z,57.27
2018-12-13T02:36:34.796Z,63.80
2018-12-13T02:39:06.545Z,62.57
2018-12-13T02:41:36.714Z,64.17
2018-12-13T02:44:07.471Z,64.70
2018-12-13T02:46:37.749Z,59.47
2018-12-13T02:49:09.504Z,59.40
2018-12-13T02:51:39.306Z,63.77
2018-12-13T02:54:09.781Z,60.07
2018-12-13T02:56:39.630Z,66.90
2018-12-13T02:59:10.960Z,72.13
2018-12-13T03:01:40.901Z,61.93
2018-12-13T03:04:12.045Z,66.97
2018-12-13T03:06:41.671Z,58.73
2018-12-13T03:09:12.747Z,64.20
2018-12-13T03:11:43.048Z,61.70
2018-12-13T03:14:14.039Z,77.20
2018-12-13T03:16:43.642Z,70.80
2018-12-13T03:19:15.078Z,66.17
2018-12-13T03:21:46.434Z,71.40
2018-12-13T03:24:17.485Z,72.40
2018-12-13T03:26:47.214Z,75.73
2018-12-13T03:29:18.308Z,66.80
2018-12-13T03:31:48.524Z,69.40
2018-12-13T03:34:19.060Z,70.77
2018-12-13T03:36:50.560Z,66.83
2018-12-13T03:39:20.685Z,65.77
2018-12-13T03:41:51.252Z,69.03
2018-12-13T03:44:21.956Z,66.60
2018-12-13T03:46:53.547Z,70.83
2018-12-13T03:49:23.504Z,68.07
2018-12-13T03:51:53.250Z,77.57
2018-12-13T03:54:25.362Z,67.83
2018-12-13T03:56:56.538Z,67.30
2018-12-13T03:59:27.032Z,65.57
2018-12-13T04:01:57.041Z,69.30
2018-12-13T04:04:27.856Z,69.60
2018-12-13T04:06:58.747Z,68.47
2018-12-13T04:09:29.636Z,72.50
2018-12-13T04:11:59.732Z,69.97
2018-12-13T04:14:30.689Z,69.50
2018-12-13T04:17:00.893Z,74.10
2018-12-13T04:19:31.633Z,68.53
2018-12-13T04:22:02.345Z,70.10
2018-12-13T04:24:32.127Z,75.50
2018-12-13T04:27:03.634Z,71.20
2018-12-13T04:29:34.285Z,68.90
2018-12-13T04:32:05.369Z,69.33
2018-12-13T04:34:35.783Z,67.83
2018-12-13T04:37:06.155Z,71.20
2018-12-13T04:39:36.208Z,68.13
2018-12-13T04:42:08.374Z,77.70
2018-12-13T04:44:38.496Z,68.33
2018-12-13T04:47:08.321Z,75.27
2018-12-13T04:49:39.334Z,64.40
2018-12-13T04:52:10.357Z,72.53
2018-12-13T04:54:41.189Z,73.33
2018-12-13T04:57:12.272Z,75.03
2018-12-13T04:59:43.814Z,68.43
2018-12-13T05:02:13.717Z,76.53
2018-12-13T05:04:43.815Z,77.60
2018-12-13T05:07:19.904Z,74.17
2018-12-13T05:09:51.362Z,67.60
2018-12-13T05:12:23.076Z,71.10
2018-12-13T05:15:04.856Z,76.90
2018-12-13T05:17:35.575Z,74.03
2018-12-13T05:20:07.491Z,76.97
2018-12-13T05:22:39.244Z,70.20
2018-12-13T05:25:11.425Z,74.77
2018-12-13T05:27:45.486Z,70.90
2018-12-13T05:30:16.926Z,73.93
2018-12-13T05:32:47.733Z,75.40
2018-12-13T05:35:20.068Z,76.00
2018-12-13T05:37:50.647Z,73.03
2018-12-13T05:40:25.658Z,75.50
2018-12-13T05:42:55.763Z,74.80
2018-12-13T05:45:26.738Z,80.00
2018-12-13T05:47:56.600Z,69.47
2018-12-13T05:50:28.654Z,71.53
2018-12-13T05:52:58.630Z,74.97
2018-12-13T05:55:28.482Z,79.17
2018-12-13T05:57:59.559Z,74.20
2018-12-13T06:00:30.522Z,77.53
2018-12-13T06:03:01.368Z,77.23
2018-12-13T06:05:31.632Z,75.37
2018-12-13T06:08:02.510Z,72.60
2018-12-13T06:10:33.196Z,73.57
2018-12-13T06:13:03.638Z,67.80
2018-12-13T06:15:40.095Z,76.23
2018-12-13T06:18:11.563Z,70.10
2018-12-13T06:20:42.308Z,68.50
2018-12-13T06:23:14.231Z,74.87
2018-12-13T06:25:44.223Z,83.70
2018-12-13T06:28:20.877Z,76.27
2018-12-13T06:30:50.731Z,72.53
2018-12-13T06:33:24.822Z,72.33
2018-12-13T06:35:53.640Z,74.50
2018-12-13T06:38:24.872Z,81.60
2018-12-13T06:40:56.116Z,74.27
2018-12-13T06:43:26.775Z,73.30
2018-12-13T06:45:57.479Z,72.63
2018-12-13T06:48:27.888Z,75.23
2018-12-13T06:50:59.273Z,83.90
2018-12-13T06:53:29.636Z,68.83
2018-12-13T06:56:00.436Z,75.47
2018-12-13T06:58:30.253Z,77.73
2018-12-13T07:01:02.719Z,78.47
2018-12-13T07:03:32.865Z,71.33
2018-12-13T07:06:02.777Z,79.17
2018-12-13T07:08:34.783Z,73.17
2018-12-13T07:11:05.314Z,85.07
2018-12-13T07:13:35.798Z,75.23
2018-12-13T07:16:06.511Z,73.57
2018-12-13T07:18:36.982Z,79.77
2018-12-13T07:21:07.752Z,76.10
2018-12-13T07:23:38.167Z,74.37
2018-12-13T07:26:09.418Z,74.60
2018-12-13T07:28:39.218Z,79.83
2018-12-13T07:31:09.996Z,80.43
2018-12-13T07:33:41.056Z,81.67
2018-12-13T07:36:10.872Z,76.23
2018-12-13T07:38:40.764Z,74.00
2018-12-13T07:41:13.121Z,81.10
2018-12-13T07:43:43.094Z,77.80
2018-12-13T07:46:14.103Z,84.83
2018-12-13T07:48:44.055Z,85.50
2018-12-13T07:51:14.859Z,74.73
2018-12-13T07:53:44.456Z,77.93
2018-12-13T07:56:14.039Z,86.27
2018-12-13T07:58:44.946Z,75.97
2018-12-13T08:01:17.920Z,81.30
2018-12-13T08:03:48.908Z,83.43
2018-12-13T08:06:21.811Z,79.57
2018-12-13T08:08:53.954Z,89.57
2018-12-13T08:11:26.228Z,82.23
2018-12-13T08:13:58.931Z,78.60
2018-12-13T08:16:29.313Z,85.60
2018-12-13T08:19:00.123Z,73.97
2018-12-13T08:21:31.391Z,91.40
2018-12-13T08:24:01.368Z,80.63
2018-12-13T08:26:33.889Z,84.23
2018-12-13T08:29:05.569Z,78.80
2018-12-13T08:31:36.358Z,86.83
2018-12-13T08:34:06.248Z,85.23
2018-12-13T08:36:37.371Z,88.10
2018-12-13T08:39:10.013Z,76.53
2018-12-13T08:41:41.751Z,83.60
2018-12-13T08:44:13.100Z,85.43
2018-12-13T08:46:43.200Z,89.60
2018-12-13T08:49:13.608Z,84.97
2018-12-13T08:51:44.472Z,92.50
2018-12-13T08:54:15.670Z,87.43
2018-12-13T08:56:47.179Z,86.10
2018-12-13T08:59:19.471Z,88.07
2018-12-13T09:01:51.240Z,91.67
2018-12-13T09:04:21.191Z,91.00
2018-12-13T09:06:52.150Z,81.60
2018-12-13T09:09:22.859Z,84.27
2018-12-13T09:11:53.455Z,90.13
2018-12-13T09:14:24.443Z,85.20
2018-12-13T09:16:56.171Z,86.03
2018-12-13T09:19:25.903Z,88.43
2018-12-13T09:21:56.279Z,92.90
2018-12-13T09:24:27.259Z,96.67
2018-12-13T09:26:58.158Z,95.43
2018-12-13T09:29:28.211Z,86.60
2018-12-13T09:31:59.148Z,88.33
2018-12-13T09:34:29.255Z,85.37
2018-12-13T09:36:59.650Z,91.63
2018-12-13T09:39:30.497Z,90.20
2018-12-13T09:42:00.463Z,93.73
2018-12-13T09:44:31.396Z,81.70
2018-12-13T09:47:02.459Z,91.70
2018-12-13T09:49:32.807Z,86.07
2018-12-13T09:52:03.283Z,80.20
2018-12-13T09:54:33.500Z,79.27
2018-12-13T09:57:04.974Z,84.30
2018-12-13T09:59:35.373Z,87.90
2018-12-13T10:02:05.865Z,85.57
2018-12-13T10:04:36.657Z,85.93
2018-12-13T10:07:07.933Z,85.17
2018-12-13T10:09:37.855Z,90.23
2018-12-13T10:12:08.604Z,89.47
2018-12-13T10:14:39.144Z,83.17
2018-12-13T10:17:10.513Z,78.23
2018-12-13T10:19:40.791Z,76.83
2018-12-13T10:22:11.979Z,80.07
2018-12-13T10:24:42.467Z,76.70
2018-12-13T10:27:12.916Z,82.87
2018-12-13T10:29:43.472Z,82.97
2018-12-13T10:32:14.325Z,78.03
2018-12-13T10:34:44.275Z,79.07
2018-12-13T10:37:15.280Z,77.10
2018-12-13T10:39:51.536Z,76.53
2018-12-13T10:42:23.035Z,84.47
2018-12-13T10:44:53.332Z,74.23
2018-12-13T10:47:26.060Z,77.63
2018-12-13T10:49:58.035Z,74.77
2018-12-13T10:52:28.784Z,83.73
2018-12-13T10:55:01.436Z,69.63
2018-12-13T10:57:31.818Z,82.17
2018-12-13T11:00:01.969Z,80.97
2018-12-13T11:02:44.736Z,76.83
2018-12-13T11:05:17.477Z,73.90
2018-12-13T11:07:47.951Z,84.50
2018-12-13T11:10:25.296Z,81.27
2018-12-13T11:12:53.919Z,71.17
2018-12-13T11:15:24.946Z,74.30
2018-12-13T11:17:55.503Z,69.40
2018-12-13T11:20:25.981Z,76.97
2018-12-13T11:22:57.057Z,68.43
2018-12-13T11:25:27.180Z,71.63
2018-12-13T11:28:32.904Z,84.30
2018-12-13T11:31:08.946Z,80.33
2018-12-13T11:33:40.106Z,82.63
2018-12-13T11:36:09.931Z,79.20
2018-12-13T11:38:41.306Z,76.33
2018-12-13T11:41:11.151Z,80.03
2018-12-13T11:43:44.994Z,82.73
2018-12-13T11:46:16.172Z,77.63
2018-12-13T11:48:47.358Z,78.23
2018-12-13T11:51:19.512Z,80.77
2018-12-13T11:53:50.000Z,69.33
2018-12-13T11:56:20.712Z,68.63
2018-12-13T11:58:51.243Z,79.03
2018-12-13T12:01:22.366Z,78.63
2018-12-13T12:03:53.406Z,65.63
2018-12-13T12:06:23.308Z,62.50
2018-12-13T12:08:54.219Z,64.13
2018-12-13T12:11:24.764Z,71.27
2018-12-13T12:13:55.420Z,63.43
2018-12-13T12:16:26.826Z,66.13
2018-12-13T12:18:56.944Z,65.40
2018-12-13T12:21:27.792Z,66.37
2018-12-13T12:23:58.494Z,71.87
2018-12-13T12:26:29.712Z,67.97
2018-12-13T12:29:00.043Z,66.10
2018-12-13T12:31:32.058Z,75.57
2018-12-13T12:34:02.061Z,63.47
2018-12-13T12:36:32.384Z,74.00
2018-12-13T12:39:04.180Z,72.90
2018-12-13T12:41:33.984Z,79.10
2018-12-13T12:44:04.486Z,67.40
2018-12-13T12:46:40.314Z,69.40
2018-12-13T12:49:11.480Z,64.60
2018-12-13T12:51:42.277Z,68.00
2018-12-13T12:54:14.991Z,65.03
2018-12-13T12:56:45.135Z,63.97
2018-12-13T12:59:23.012Z,63.33
2018-12-13T13:01:53.966Z,64.10
2018-12-13T13:04:24.485Z,65.23
2018-12-13T13:06:55.241Z,62.20
2018-12-13T13:09:25.511Z,64.60
2018-12-13T13:11:57.380Z,63.07
2018-12-13T13:14:28.801Z,60.90
2018-12-13T13:17:00.934Z,56.50
2018-12-13T13:19:34.931Z,61.53
2018-12-13T13:22:06.733Z,56.70
2018-12-13T13:24:38.151Z,64.10
2018-12-13T13:27:11.144Z,56.47
2018-12-13T13:29:44.155Z,55.83
2018-12-13T13:32:22.279Z,66.23
2018-12-13T13:34:59.407Z,63.10
2018-12-13T13:37:32.302Z,56.00
2018-12-13T13:40:09.277Z,66.57
2018-12-13T13:42:42.545Z,56.37
2018-12-13T13:45:12.649Z,58.83
2018-12-13T13:47:45.522Z,60.57
2018-12-13T13:50:22.394Z,54.53
2018-12-13T13:52:53.424Z,56.20
2018-12-13T13:55:23.824Z,52.20
2018-12-13T13:57:54.666Z,51.00
2018-12-13T14:00:25.485Z,51.97
2018-12-13T14:02:56.035Z,55.53
2018-12-13T14:05:26.787Z,60.07
2018-12-13T14:07:57.449Z,52.07
2018-12-13T14:10:27.597Z,52.63
2018-12-13T14:12:57.548Z,56.10
2018-12-13T14:15:35.275Z,52.30
2018-12-13T14:18:07.102Z,52.83
2018-12-13T14:20:36.763Z,56.10
2018-12-13T14:23:09.049Z,87.40
2018-12-13T14:25:44.381Z,74.80
2018-12-13T14:28:25.441Z,57.57
2018-12-13T14:30:59.155Z,96.00
2018-12-13T14:33:31.933Z,57.17
2018-12-13T14:36:02.682Z,53.27
2018-12-13T14:38:33.303Z,46.53
2018-12-13T14:41:04.864Z,42.70
2018-12-13T14:43:34.819Z,43.47
2018-12-13T14:46:05.950Z,44.10
2018-12-13T14:48:37.071Z,46.00
2018-12-13T14:51:08.474Z,46.40
2018-12-13T14:53:40.893Z,50.90
2018-12-13T14:56:10.959Z,47.30
2018-12-13T14:58:42.742Z,48.27
2018-12-13T15:01:13.379Z,44.97
2018-12-13T15:03:43.521Z,46.40
2018-12-13T15:06:14.013Z,42.90
2018-12-13T15:08:43.815Z,49.43
2018-12-13T15:11:15.230Z,44.60
2018-12-13T15:13:45.061Z,41.17
2018-12-13T15:16:17.347Z,41.97
2018-12-13T15:18:47.621Z,46.47
2018-12-13T15:21:19.164Z,47.93
2018-12-13T15:23:49.091Z,45.30
2018-12-13T15:26:19.759Z,42.73
2018-12-13T15:28:50.504Z,45.03
2018-12-13T15:31:21.105Z,46.13
2018-12-13T15:33:51.208Z,76.30
2018-12-13T15:36:23.473Z,56.10
2018-12-13T15:38:54.973Z,59.03
2018-12-13T15:41:24.820Z,51.70
2018-12-13T15:43:56.012Z,42.47
2018-12-13T15:46:26.624Z,42.40
2018-12-13T15:48:57.096Z,38.60
2018-12-13T15:51:27.421Z,37.87
2018-12-13T15:53:57.241Z,33.17
2018-12-13T15:56:28.904Z,29.33
2018-12-13T15:58:59.539Z,34.63
2018-12-13T16:01:30.030Z,36.67
2018-12-13T16:04:01.170Z,33.93
2018-12-13T16:06:31.013Z,32.33
2018-12-13T16:09:02.074Z,35.70
2018-12-13T16:11:32.162Z,33.40
2018-12-13T16:14:03.488Z,36.37
2018-12-13T16:16:33.356Z,34.03
2018-12-13T16:19:04.552Z,41.70
2018-12-13T16:21:35.083Z,38.53
2018-12-13T16:24:05.758Z,40.80
2018-12-13T16:26:36.512Z,41.03
2018-12-13T16:29:06.694Z,39.50
2018-12-13T16:31:37.465Z,35.53
2018-12-13T16:34:10.553Z,41.30
2018-12-13T16:36:41.493Z,40.10
2018-12-13T16:39:12.789Z,37.30
2018-12-13T16:41:44.596Z,41.83
2018-12-13T16:44:16.522Z,41.43
2018-12-13T16:46:48.240Z,45.90
2018-12-13T16:49:19.247Z,43.27
2018-12-13T16:51:52.416Z,45.07
2018-12-13T16:54:22.469Z,53.03
2018-12-13T16:56:57.920Z,39.67
2018-12-13T16:59:29.403Z,39.27
2018-12-13T17:02:03.230Z,42.93
2018-12-13T17:04:34.430Z,42.80
2018-12-13T17:07:04.781Z,51.07
2018-12-13T17:09:35.748Z,61.97
2018-12-13T17:12:06.201Z,57.67
2018-12-13T17:14:38.638Z,52.60
2018-12-13T17:17:10.102Z,44.90
2018-12-13T17:19:43.565Z,48.77
2018-12-13T17:22:14.049Z,50.93
2018-12-13T17:24:46.722Z,51.30
2018-12-13T17:27:17.697Z,46.50
2018-12-13T17:29:49.506Z,43.03
2018-12-13T17:32:21.627Z,50.13
2018-12-13T17:34:51.421Z,42.50
2018-12-13T17:37:23.301Z,43.70
2018-12-13T17:39:54.048Z,46.43
2018-12-13T17:42:24.836Z,51.27
2018-12-13T17:44:55.279Z,44.57
2018-12-13T17:47:25.803Z,46.53
2018-12-13T17:49:57.385Z,40.90
2018-12-13T17:52:28.132Z,38.13
2018-12-13T17:54:58.488Z,44.23
2018-12-13T17:57:28.845Z,43.10
2018-12-13T17:59:59.811Z,43.07
2018-12-13T18:02:30.136Z,32.60
2018-12-13T18:05:00.543Z,31.87
2018-12-13T18:07:31.923Z,29.90
2018-12-13T18:10:02.511Z,32.70
2018-12-13T18:12:33.638Z,35.20
2018-12-13T18:15:03.839Z,29.20
2018-12-13T18:17:34.599Z,31.23
2018-12-13T18:20:05.859Z,32.43
2018-12-13T18:22:35.472Z,28.90
2018-12-13T18:25:06.198Z,37.47
2018-12-13T18:27:36.874Z,42.17
2018-12-13T18:30:10.058Z,38.30
2018-12-13T18:32:41.196Z,42.63
2018-12-13T18:35:12.396Z,43.87
2018-12-13T18:37:46.438Z,46.27
2018-12-13T18:40:16.044Z,41.07
2018-12-13T18:42:45.634Z,40.40
2018-12-13T18:45:17.266Z,42.60
2018-12-13T18:47:49.221Z,44.90
2018-12-13T18:50:20.974Z,43.30
2018-12-13T18:52:55.212Z,47.13
2018-12-13T18:55:25.973Z,41.50
2018-12-13T18:57:57.915Z,34.90
2018-12-13T19:00:29.742Z,41.50
2018-12-13T19:03:01.298Z,40.83
2018-12-13T19:05:31.958Z,37.87
2018-12-13T19:08:02.680Z,45.37
2018-12-13T19:10:33.699Z,35.30
2018-12-13T19:13:04.366Z,43.13
2018-12-13T19:15:35.794Z,40.90
2018-12-13T19:18:06.394Z,42.93
2018-12-13T19:20:36.107Z,44.17
2018-12-13T19:26:28.773Z,39.77
2018-12-13T19:29:03.658Z,41.77
2018-12-13T19:31:38.529Z,37.10
2018-12-13T19:34:10.356Z,44.90
2018-12-13T19:36:40.595Z,38.83
2018-12-13T19:39:10.723Z,41.00
2018-12-13T19:41:41.621Z,37.40
2018-12-13T19:44:11.980Z,43.10
2018-12-13T19:46:42.976Z,45.50
2018-12-13T19:49:13.921Z,39.20
2018-12-13T19:51:43.918Z,41.40
2018-12-13T19:54:14.479Z,40.97
2018-12-13T19:56:46.954Z,38.50
2018-12-13T19:59:21.851Z,47.47
2018-12-13T20:01:53.136Z,36.70
2018-12-13T20:04:23.656Z,40.67
2018-12-13T20:06:54.435Z,43.10
2018-12-13T20:09:24.327Z,38.83
2018-12-13T20:11:55.455Z,35.30
2018-12-13T20:14:26.511Z,37.50
2018-12-13T20:16:57.635Z,34.67
2018-12-13T20:19:28.403Z,34.53
2018-12-13T20:21:59.287Z,35.03
2018-12-13T20:24:30.567Z,32.27
2018-12-13T20:27:03.671Z,38.10
2018-12-13T20:29:33.242Z,32.90
2018-12-13T20:32:05.916Z,33.37
2018-12-13T20:34:39.313Z,34.57
2018-12-13T20:37:11.843Z,33.03
2018-12-13T20:39:41.754Z,29.47
2018-12-13T20:42:12.366Z,31.33
2018-12-13T20:44:42.550Z,29.73
2018-12-13T20:47:13.942Z,32.30
2018-12-13T20:49:45.522Z,34.33
2018-12-13T20:52:16.707Z,29.17
2018-12-13T20:54:46.575Z,33.03
2018-12-13T20:57:17.263Z,34.33
2018-12-13T20:59:47.757Z,31.70
2018-12-13T21:02:19.364Z,31.83
2018-12-13T21:04:49.882Z,33.30
2018-12-13T21:07:36.403Z,35.20
2018-12-13T21:10:11.731Z,32.47
2018-12-13T21:12:43.077Z,34.43
2018-12-13T21:15:13.157Z,35.60
2018-12-13T21:17:43.923Z,32.93
2018-12-13T21:20:14.720Z,36.20
2018-12-13T21:22:45.213Z,39.00
2018-12-13T21:25:16.331Z,40.57
2018-12-13T21:27:50.137Z,36.77
2018-12-13T21:30:22.539Z,34.63
2018-12-13T21:32:53.784Z,41.77
2018-12-13T21:35:25.156Z,38.43
2018-12-13T21:37:57.813Z,43.33
2018-12-13T21:40:28.399Z,42.73
2018-12-13T21:42:59.855Z,43.30
2018-12-13T21:45:39.448Z,44.00
2018-12-13T21:48:13.821Z,46.00
2018-12-13T21:50:46.622Z,41.83
2018-12-13T21:53:20.749Z,41.93
2018-12-13T21:56:00.501Z,42.37
2018-12-13T21:58:38.465Z,43.67
2018-12-13T22:01:13.407Z,43.93
2018-12-13T22:03:47.077Z,44.77
2018-12-13T22:06:16.823Z,44.67
2018-12-13T22:08:49.798Z,46.43
2018-12-13T22:11:26.029Z,48.33
2018-12-13T22:13:57.719Z,45.00
2018-12-13T22:16:29.106Z,46.83
2018-12-13T22:18:58.707Z,46.40
2018-12-13T22:21:29.700Z,47.23
2018-12-13T22:24:13.946Z,45.47
2018-12-13T22:26:51.764Z,47.90
2018-12-13T22:29:24.144Z,50.23
2018-12-13T22:31:55.502Z,43.47
2018-12-13T22:34:26.997Z,39.20
2018-12-13T22:36:58.203Z,43.67
2018-12-13T22:39:29.198Z,46.40
2018-12-13T22:41:59.284Z,46.33
2018-12-13T22:44:29.893Z,46.63
2018-12-13T22:47:00.223Z,47.77
2018-12-13T22:49:30.726Z,49.77
2018-12-13T22:52:00.906Z,49.63
2018-12-13T22:54:30.887Z,49.00
2018-12-13T22:57:01.898Z,49.27
2018-12-13T22:59:31.947Z,51.20
2018-12-13T23:02:02.863Z,49.97
2018-12-13T23:04:33.212Z,48.67
2018-12-13T23:07:03.975Z,50.50
2018-12-13T23:09:34.565Z,52.67
2018-12-13T23:12:07.165Z,53.63
2018-12-13T23:14:37.029Z,52.87
2018-12-13T23:17:07.451Z,53.93
2018-12-13T23:19:37.015Z,46.27
2018-12-13T23:22:11.045Z,48.63
2018-12-13T23:24:40.918Z,48.20
2018-12-13T23:27:12.474Z,50.60
2018-12-13T23:29:42.574Z,58.20
2018-12-13T23:32:13.065Z,49.90
2018-12-13T23:34:44.665Z,48.10
2018-12-13T23:37:14.738Z,46.97
2018-12-13T23:39:45.286Z,42.80
2018-12-13T23:42:16.107Z,47.60
2018-12-13T23:44:45.707Z,54.20
2018-12-13T23:47:18.310Z,48.87
2018-12-13T23:49:48.020Z,49.80
2018-12-13T23:52:22.152Z,51.17
2018-12-13T23:54:52.336Z,54.33
2018-12-13T23:57:22.348Z,53.20
2018-12-13T23:59:53.377Z,50.43
